Time;durP1;ratioP1;P1;durP2;ratioP2;P2;SDS_P1;SDS_P2;PMS_P1;PMS_P2;Temp;Humidity;BMP_temperature;BMP_pressure;BME280_temperature;BME280_humidity;BME280_pressure;Samples;Min_cycle;Max_cycle;Signal;HPM_P1;HPM_P2
2022/04/13 00:01:59;;;;;;;4.20;3.57;;;11.70;64.00;;;;;;5032598;28;20175;-57
2022/04/13 00:04:25;;;;;;;5.27;3.80;;;11.60;64.30;;;;;;5033910;28;20172;-54
2022/04/13 00:06:50;;;;;;;5.47;3.77;;;11.60;64.60;;;;;;5033941;28;20187;-59
2022/04/13 00:09:16;;;;;;;4.63;3.63;;;11.50;64.40;;;;;;5034062;28;20172;-58
2022/04/13 00:11:41;;;;;;;5.00;3.67;;;11.50;64.60;;;;;;5033985;28;20735;-58
2022/04/13 00:14:07;;;;;;;4.53;3.73;;;11.50;64.90;;;;;;5033748;28;20541;-57
2022/04/13 00:16:33;;;;;;;4.73;3.73;;;11.40;67.80;;;;;;5033880;28;20172;-57
2022/04/13 00:18:58;;;;;;;4.30;3.63;;;11.50;65.10;;;;;;5033837;28;20290;-57
2022/04/13 00:21:24;;;;;;;4.90;3.70;;;11.50;65.10;;;;;;5033761;28;20626;-57
2022/04/13 00:23:49;;;;;;;6.27;3.70;;;11.40;65.30;;;;;;5023692;28;20183;-58
2022/04/13 00:26:15;;;;;;;3.93;3.50;;;11.20;66.80;;;;;;5024892;28;20167;-55
2022/04/13 00:28:41;;;;;;;5.37;3.67;;;11.40;65.40;;;;;;5017190;28;20192;-56
2022/04/13 00:31:07;;;;;;;5.40;4.10;;;11.30;65.60;;;;;;5013828;28;20223;-58
2022/04/13 00:33:33;;;;;;;5.80;3.50;;;11.30;65.90;;;;;;5027516;28;20215;-56
2022/04/13 00:35:59;;;;;;;4.90;3.80;;;11.30;66.00;;;;;;5033497;28;20175;-57
2022/04/13 00:38:25;;;;;;;4.83;3.80;;;11.20;65.90;;;;;;5033195;28;20257;-55
2022/04/13 00:40:50;;;;;;;5.67;3.70;;;11.20;65.80;;;;;;5032954;28;20218;-53
2022/04/13 00:43:16;;;;;;;5.77;3.30;;;11.10;66.30;;;;;;5032478;28;20652;-54
2022/04/13 00:45:45;;;;;;;5.30;3.50;;;11.10;66.60;;;;;;5033361;28;20168;-56
2022/04/13 00:48:27;;;;;;;6.23;3.53;;;11.10;66.60;;;;;;5022394;28;20245;-53
2022/04/13 00:50:52;;;;;;;6.17;3.70;;;11.10;66.90;;;;;;5031860;28;20194;-57
2022/04/13 00:53:19;;;;;;;5.30;3.80;;;11.00;67.20;;;;;;5024679;28;20553;-55
2022/04/13 00:55:46;;;;;;;5.13;3.77;;;11.00;67.30;;;;;;5027863;28;20223;-55
2022/04/13 00:58:15;;;;;;;4.27;3.63;;;11.00;67.40;;;;;;5032020;28;20208;-56
2022/04/13 01:00:48;;;;;;;4.23;3.47;;;11.00;67.70;;;;;;5032945;28;20176;-57
2022/04/13 01:03:17;;;;;;;5.77;3.70;;;11.00;67.60;;;;;;5032585;28;20689;-56
2022/04/13 01:05:44;;;;;;;5.07;3.67;;;11.00;67.80;;;;;;5031423;28;20187;-53
2022/04/13 01:08:11;;;;;;;5.10;3.53;;;10.90;68.10;;;;;;5032492;28;20200;-57
2022/04/13 01:10:38;;;;;;;4.17;3.17;;;10.90;68.40;;;;;;5032783;28;20635;-56
2022/04/13 01:13:04;;;;;;;6.23;3.83;;;10.90;68.30;;;;;;5032446;28;20198;-54
2022/04/13 01:15:29;;;;;;;5.00;3.50;;;10.80;68.40;;;;;;5032702;28;20653;-52
2022/04/13 01:17:55;;;;;;;4.13;3.10;;;10.80;68.40;;;;;;5032507;28;20207;-53
2022/04/13 01:20:23;;;;;;;4.43;3.47;;;10.80;68.70;;;;;;5031392;28;20171;-53
2022/04/13 01:22:48;;;;;;;5.03;3.80;;;10.70;68.90;;;;;;5031295;28;20178;-55
2022/04/13 01:25:14;;;;;;;4.20;3.20;;;10.70;69.00;;;;;;5032422;28;20172;-54
2022/04/13 01:27:40;;;;;;;5.60;3.37;;;10.60;69.40;;;;;;5032371;28;20692;-53
2022/04/13 01:30:07;;;;;;;4.80;3.33;;;10.70;69.80;;;;;;5032364;28;20688;-52
2022/04/13 01:32:33;;;;;;;3.60;3.30;;;10.60;69.80;;;;;;5032347;28;20206;-54
2022/04/13 01:34:59;;;;;;;5.40;3.33;;;10.60;70.30;;;;;;5032310;28;20180;-52
2022/04/13 01:37:24;;;;;;;4.37;3.70;;;10.50;70.30;;;;;;5032013;28;20290;-54
2022/04/13 01:39:50;;;;;;;4.53;3.40;;;10.40;70.30;;;;;;5032385;28;20258;-53
2022/04/13 01:42:16;;;;;;;4.10;3.20;;;10.40;70.50;;;;;;5031912;28;20204;-55
2022/04/13 01:44:42;;;;;;;4.30;3.37;;;10.40;70.60;;;;;;5032244;28;20665;-55
2022/04/13 01:47:09;;;;;;;4.43;3.20;;;10.40;70.80;;;;;;5032061;28;20188;-56
2022/04/13 01:49:35;;;;;;;5.43;3.30;;;10.40;70.80;;;;;;5032133;28;20545;-55
2022/04/13 01:52:02;;;;;;;4.87;3.67;;;10.40;71.60;;;;;;5031823;28;20175;-55
2022/04/13 01:54:27;;;;;;;6.17;3.40;;;10.30;72.00;;;;;;5031771;28;20172;-53
2022/04/13 01:56:53;;;;;;;6.30;3.50;;;10.20;72.30;;;;;;5024108;28;20200;-53
2022/04/13 01:59:18;;;;;;;4.93;3.30;;;10.10;72.50;;;;;;5031899;28;20202;-55
2022/04/13 02:01:44;;;;;;;3.90;3.50;;;10.10;72.60;;;;;;5031880;28;20188;-54
2022/04/13 02:04:20;;;;;;;5.07;3.53;;;10.00;72.80;;;;;;5031672;28;20168;-56
2022/04/13 02:06:47;;;;;;;5.80;3.53;;;10.00;73.30;;;;;;5031744;28;20242;-55
2022/04/13 02:09:14;;;;;;;4.77;3.47;;;10.00;72.90;;;;;;5031948;28;20180;-52
2022/04/13 02:11:39;;;;;;;8.97;3.40;;;10.00;72.60;;;;;;5031774;28;20202;-54
2022/04/13 02:14:06;;;;;;;3.57;3.23;;;10.00;72.40;;;;;;5031630;28;20211;-53
2022/04/13 02:16:31;;;;;;;4.77;3.50;;;10.00;75.00;;;;;;5031701;28;20553;-54
2022/04/13 02:18:57;;;;;;;4.77;3.80;;;10.00;72.90;;;;;;5031548;28;20286;-57
2022/04/13 02:21:22;;;;;;;4.73;3.30;;;10.00;72.60;;;;;;5031635;28;20172;-54
2022/04/13 02:23:48;;;;;;;5.63;3.60;;;10.00;72.60;;;;;;5031717;28;20600;-53
2022/04/13 02:26:13;;;;;;;5.20;3.20;;;10.00;73.10;;;;;;5031823;28;20179;-55
2022/04/13 02:28:39;;;;;;;4.17;3.50;;;10.00;73.60;;;;;;5031535;28;20187;-56
2022/04/13 02:31:04;;;;;;;5.70;3.60;;;10.00;73.10;;;;;;5031988;28;20533;-55
2022/04/13 02:33:33;;;;;;;4.43;3.40;;;10.00;73.30;;;;;;5031161;28;20168;-53
2022/04/13 02:35:59;;;;;;;7.20;3.47;;;10.00;73.20;;;;;;5031686;28;20237;-52
2022/04/13 02:38:25;;;;;;;5.07;3.77;;;10.00;73.80;;;;;;5031404;28;20208;-57
2022/04/13 02:40:51;;;;;;;5.23;4.23;;;9.90;75.10;;;;;;5031659;28;20164;-53
2022/04/13 02:43:16;;;;;;;4.80;3.93;;;9.80;74.80;;;;;;5031271;28;20179;-53
2022/04/13 02:45:42;;;;;;;4.80;4.07;;;9.80;75.00;;;;;;5031465;28;20180;-55
2022/04/13 02:48:08;;;;;;;5.77;4.13;;;9.80;74.90;;;;;;5031397;28;20269;-53
2022/04/13 02:50:34;;;;;;;4.37;3.97;;;9.90;75.10;;;;;;5031487;28;20176;-55
2022/04/13 02:52:59;;;;;;;6.27;4.37;;;9.80;74.90;;;;;;5031041;28;20194;-56
2022/04/13 02:55:25;;;;;;;5.20;4.20;;;9.80;75.10;;;;;;5031467;28;20180;-53
2022/04/13 02:57:51;;;;;;;7.33;4.60;;;9.70;75.70;;;;;;5031231;28;20207;-54
2022/04/13 03:00:17;;;;;;;5.63;4.57;;;9.70;76.20;;;;;;5031489;28;20168;-56
2022/04/13 03:02:44;;;;;;;6.03;4.50;;;9.70;76.70;;;;;;5031287;28;20176;-54
2022/04/13 03:05:10;;;;;;;6.40;4.40;;;9.70;77.70;;;;;;5027311;28;20672;-55
2022/04/13 03:07:36;;;;;;;5.87;4.50;;;;;;;;;;5034969;28;20226;-55
2022/04/13 03:10:03;;;;;;;5.43;4.10;;;9.50;78.20;;;;;;5035424;28;20548;-55
2022/04/13 03:12:29;;;;;;;6.10;4.30;;;9.60;79.60;;;;;;5034697;28;20263;-53
2022/04/13 03:14:54;;;;;;;4.67;4.00;;;9.50;80.70;;;;;;5035133;28;20259;-58
2022/04/13 03:17:20;;;;;;;5.40;3.80;;;9.40;81.10;;;;;;5034885;28;20676;-58
2022/04/13 03:19:45;;;;;;;6.77;4.40;;;9.40;81.60;;;;;;5035128;28;20214;-56
2022/04/13 03:22:11;;;;;;;6.93;4.07;;;9.30;81.20;;;;;;5034973;28;20214;-58
2022/04/13 03:24:37;;;;;;;5.10;4.23;;;9.30;80.80;;;;;;5034870;28;20603;-53
2022/04/13 03:27:03;;;;;;;5.10;3.90;;;9.30;80.80;;;;;;5034652;28;20665;-54
2022/04/13 03:29:28;;;;;;;4.87;3.83;;;9.30;80.80;;;;;;5034799;28;20659;-55
2022/04/13 03:31:54;;;;;;;5.50;3.80;;;9.40;81.10;;;;;;5034812;28;20179;-55
2022/04/13 03:34:22;;;;;;;5.33;4.53;;;9.30;80.90;;;;;;5034321;28;20167;-53
2022/04/13 03:36:49;;;;;;;6.97;4.40;;;9.30;80.80;;;;;;5034168;28;20203;-55
2022/04/13 03:39:14;;;;;;;6.40;4.17;;;9.20;81.10;;;;;;5016773;28;20195;-53
2022/04/13 03:41:40;;;;;;;6.07;4.97;;;9.20;81.50;;;;;;5024853;28;20187;-53
2022/04/13 03:44:06;;;;;;;6.40;4.83;;;9.20;81.90;;;;;;5032529;28;20176;-57
2022/04/13 03:46:32;;;;;;;6.30;4.97;;;9.10;85.20;;;;;;5030469;28;20279;-55
2022/04/13 03:48:58;;;;;;;7.87;5.57;;;9.10;82.30;;;;;;5034112;28;20637;-55
2022/04/13 03:51:24;;;;;;;7.10;4.90;;;9.10;82.30;;;;;;5034237;28;20183;-55
2022/04/13 03:53:49;;;;;;;9.17;5.40;;;9.10;82.60;;;;;;5033895;28;20258;-54
2022/04/13 03:56:15;;;;;;;6.03;4.93;;;;;;;;;;5026761;28;20615;-52
2022/04/13 03:58:41;;;;;;;7.40;4.40;;;9.10;83.10;;;;;;5033975;28;20287;-55
2022/04/13 04:01:08;;;;;;;6.33;4.70;;;9.00;84.00;;;;;;5034065;28;20665;-56
2022/04/13 04:03:37;;;;;;;5.60;4.33;;;8.90;84.10;;;;;;5033646;28;20641;-53
2022/04/13 04:06:03;;;;;;;6.97;4.60;;;8.90;84.60;;;;;;5034080;28;20544;-57
2022/04/13 04:08:29;;;;;;;7.17;4.83;;;8.90;85.10;;;;;;5034030;28;20246;-54
2022/04/13 04:10:55;;;;;;;4.90;4.07;;;8.80;85.50;;;;;;5033916;28;20176;-55
2022/04/13 04:13:21;;;;;;;6.53;4.87;;;;;;;;;;5026588;28;20237;-55
2022/04/13 04:15:47;;;;;;;8.33;5.00;;;8.80;85.20;;;;;;5033711;28;20204;-52
2022/04/13 04:18:13;;;;;;;8.57;4.70;;;8.80;86.40;;;;;;5033583;28;20255;-54
2022/04/13 04:20:38;;;;;;;5.90;4.90;;;8.80;86.30;;;;;;5033786;28;20171;-56
2022/04/13 04:23:04;;;;;;;6.80;4.90;;;8.80;87.00;;;;;;5033444;28;20194;-57
2022/04/13 04:25:30;;;;;;;4.80;3.80;;;8.80;87.20;;;;;;5033645;28;20186;-56
2022/04/13 04:27:55;;;;;;;3.50;3.20;;;8.80;87.70;;;;;;5034847;28;20192;-53
2022/04/13 04:30:21;;;;;;;6.43;3.10;;;8.70;87.60;;;;;;5033584;28;20176;-54
2022/04/13 04:32:46;;;;;;;3.37;2.90;;;8.70;87.60;;;;;;5033110;28;20576;-56
2022/04/13 04:35:12;;;;;;;6.57;3.60;;;8.70;87.50;;;;;;5033625;28;20251;-53
2022/04/13 04:37:38;;;;;;;6.00;3.67;;;8.70;87.60;;;;;;5033286;28;20200;-54
2022/04/13 04:40:04;;;;;;;5.80;4.53;;;8.70;88.90;;;;;;5033541;28;20609;-51
2022/04/13 04:42:30;;;;;;;5.73;4.60;;;8.70;87.90;;;;;;5032846;28;20172;-54
2022/04/13 04:44:59;;;;;;;4.13;3.70;;;8.70;88.60;;;;;;5033329;28;20525;-56
2022/04/13 04:47:25;;;;;;;5.87;3.40;;;8.70;89.10;;;;;;5027472;28;20195;-55
2022/04/13 04:49:51;;;;;;;4.87;3.93;;;8.60;89.40;;;;;;5033264;28;20175;-56
2022/04/13 04:52:17;;;;;;;5.03;3.77;;;8.70;90.00;;;;;;5032897;28;20172;-56
2022/04/13 04:54:42;;;;;;;5.13;3.67;;;8.70;90.40;;;;;;5033432;28;20207;-52
2022/04/13 04:57:08;;;;;;;6.53;4.40;;;8.70;90.70;;;;;;5032956;28;20597;-55
2022/04/13 04:59:34;;;;;;;4.53;4.07;;;8.70;91.00;;;;;;5033021;28;20204;-55
2022/04/13 05:01:59;;;;;;;5.97;4.20;;;8.80;91.20;;;;;;5022803;28;20182;-55
2022/04/13 05:04:25;;;;;;;5.47;4.10;;;8.80;91.50;;;;;;5030860;28;20532;-54
2022/04/13 05:06:51;;;;;;;5.53;3.87;;;8.70;91.80;;;;;;5032584;28;20652;-56
2022/04/13 05:09:18;;;;;;;6.97;3.90;;;8.70;92.40;;;;;;5031084;28;20521;-56
2022/04/13 05:11:44;;;;;;;6.53;4.17;;;8.70;92.60;;;;;;5028353;28;20202;-55
2022/04/13 05:14:10;;;;;;;4.93;3.73;;;8.70;92.80;;;;;;5032203;28;20175;-55
2022/04/13 05:16:36;;;;;;;5.37;4.50;;;8.80;93.10;;;;;;5032409;28;20199;-56
2022/04/13 05:19:01;;;;;;;6.17;4.27;;;8.70;93.30;;;;;;5030620;28;20211;-56
2022/04/13 05:21:27;;;;;;;4.17;3.77;;;8.80;93.30;;;;;;5032463;28;20179;-56
2022/04/13 05:23:52;;;;;;;5.40;4.07;;;8.80;93.60;;;;;;5032231;28;20587;-57
2022/04/13 05:26:18;;;;;;;6.60;4.17;;;9.10;95.20;;;;;;5032425;28;20199;-57
2022/04/13 05:28:45;;;;;;;5.13;4.27;;;8.90;94.00;;;;;;5031885;28;20176;-55
2022/04/13 05:31:11;;;;;;;4.73;4.00;;;9.00;94.10;;;;;;5032717;28;20226;-56
2022/04/13 05:33:37;;;;;;;5.47;3.80;;;9.10;94.10;;;;;;5031852;28;20576;-57
2022/04/13 05:36:03;;;;;;;6.77;3.90;;;9.20;94.10;;;;;;5030940;28;20225;-56
2022/04/13 05:38:29;;;;;;;6.13;4.13;;;9.30;94.00;;;;;;5031987;28;20235;-56
2022/04/13 05:40:54;;;;;;;4.67;3.90;;;9.40;94.00;;;;;;5032270;28;20204;-56
2022/04/13 05:43:20;;;;;;;6.30;3.87;;;9.40;93.90;;;;;;5031704;28;20168;-56
2022/04/13 05:45:46;;;;;;;5.17;4.10;;;9.50;94.00;;;;;;5032179;28;20597;-55
2022/04/13 05:48:11;;;;;;;5.80;4.37;;;9.50;94.10;;;;;;5027097;28;20230;-58
2022/04/13 05:50:37;;;;;;;5.73;3.87;;;9.60;94.10;;;;;;5032031;28;20199;-57
2022/04/13 05:53:02;;;;;;;6.33;4.13;;;9.70;94.10;;;;;;5028194;28;20177;-54
2022/04/13 05:55:28;;;;;;;6.80;4.10;;;9.80;94.00;;;;;;5012244;28;20184;-55
2022/04/13 05:57:54;;;;;;;6.43;4.10;;;9.90;94.00;;;;;;5012193;28;20222;-57
2022/04/13 06:00:19;;;;;;;5.50;3.80;;;10.00;93.60;;;;;;5012179;28;20188;-57
2022/04/13 06:02:45;;;;;;;7.73;3.70;;;10.10;93.80;;;;;;5014774;28;20186;-53
2022/04/13 06:05:12;;;;;;;5.03;3.80;;;10.20;93.70;;;;;;5031680;28;20176;-55
2022/04/13 06:07:38;;;;;;;5.20;3.57;;;10.30;93.70;;;;;;5031764;28;20557;-55
2022/04/13 06:10:05;;;;;;;5.20;3.67;;;10.50;93.50;;;;;;5019347;28;20400;-53
2022/04/13 06:12:32;;;;;;;4.20;3.80;;;10.60;93.50;;;;;;5031103;28;20180;-57
2022/04/13 06:15:08;;;;;;;4.27;3.50;;;10.70;93.30;;;;;;5031578;28;20651;-55
2022/04/13 06:17:34;;;;;;;4.63;3.90;;;10.90;93.00;;;;;;5015265;28;20204;-57
2022/04/13 06:19:59;;;;;;;5.53;4.17;;;10.90;93.30;;;;;;5020095;28;20545;-57
2022/04/13 06:22:25;;;;;;;4.13;3.70;;;10.90;93.00;;;;;;5018861;28;20313;-56
2022/04/13 06:24:53;;;;;;;5.70;4.17;;;10.90;93.50;;;;;;5020301;28;20270;-55
2022/04/13 06:27:19;;;;;;;7.20;4.03;;;;;;;;;;5027954;28;20657;-51
2022/04/13 06:29:46;;;;;;;5.73;4.33;;;;;;;;;;5024357;28;20220;-53
2022/04/13 06:32:15;;;;;;;4.60;4.20;;;11.10;95.70;;;;;;5031116;28;20664;-55
2022/04/13 06:34:41;;;;;;;5.77;4.50;;;11.10;93.70;;;;;;5024190;28;20241;-58
2022/04/13 06:37:07;;;;;;;5.03;4.07;;;11.10;93.30;;;;;;5026656;28;20207;-54
2022/04/13 06:39:32;;;;;;;4.60;3.93;;;11.00;93.90;;;;;;5021665;28;20675;-53
2022/04/13 06:41:58;;;;;;;5.47;4.10;;;;;;;;;;5024768;28;20187;-52
2022/04/13 06:44:24;;;;;;;5.50;4.00;;;10.80;94.40;;;;;;5030979;28;20172;-53
2022/04/13 06:46:49;;;;;;;5.30;4.50;;;10.90;95.40;;;;;;5025245;28;20249;-55
2022/04/13 06:49:15;;;;;;;5.57;4.53;;;11.00;94.60;;;;;;5024728;28;20189;-55
2022/04/13 06:51:40;;;;;;;6.47;4.60;;;11.20;94.20;;;;;;5022627;28;20192;-55
2022/04/13 06:54:06;;;;;;;5.57;4.30;;;11.30;94.20;;;;;;5021330;28;20187;-55
2022/04/13 06:56:32;;;;;;;5.30;4.57;;;11.00;94.50;;;;;;5024703;28;20191;-55
2022/04/13 06:58:58;;;;;;;6.40;4.67;;;11.30;94.10;;;;;;5025773;28;20302;-54
2022/04/13 07:01:24;;;;;;;5.07;4.20;;;11.20;94.50;;;;;;5035678;28;20188;-52
2022/04/13 07:03:50;;;;;;;6.93;4.23;;;11.40;94.80;;;;;;5037832;28;20171;-56
2022/04/13 07:06:15;;;;;;;4.73;3.90;;;11.50;93.30;;;;;;5034609;28;20258;-53
2022/04/13 07:08:41;;;;;;;5.00;4.20;;;11.60;93.90;;;;;;5027255;28;20188;-54
2022/04/13 07:11:06;;;;;;;5.47;4.30;;;11.70;93.70;;;;;;5034552;28;20559;-57
2022/04/13 07:13:32;;;;;;;4.03;3.60;;;11.80;93.40;;;;;;5034599;28;20188;-52
2022/04/13 07:15:58;;;;;;;5.03;3.90;;;12.00;93.90;;;;;;5033574;28;20592;-56
2022/04/13 07:18:25;;;;;;;4.60;4.00;;;12.30;92.90;;;;;;5030093;28;20250;-55
2022/04/13 07:20:50;;;;;;;5.63;4.50;;;12.50;91.70;;;;;;5028246;28;20168;-54
2022/04/13 07:23:16;;;;;;;4.87;4.37;;;12.70;91.20;;;;;;5026715;28;20246;-56
2022/04/13 07:25:41;;;;;;;5.93;4.17;;;13.00;91.30;;;;;;5035839;28;20255;-55
2022/04/13 07:28:07;;;;;;;4.47;3.87;;;13.20;90.40;;;;;;5034410;28;20203;-54
2022/04/13 07:30:33;;;;;;;5.23;4.00;;;13.50;90.30;;;;;;5035206;28;20641;-52
2022/04/13 07:33:01;;;;;;;4.47;4.07;;;13.60;89.50;;;;;;5031209;28;20661;-54
2022/04/13 07:35:28;;;;;;;4.33;3.60;;;13.80;88.70;;;;;;5031580;28;20187;-55
2022/04/13 07:37:54;;;;;;;4.33;3.93;;;13.90;84.40;;;;;;5036583;28;20541;-53
2022/04/13 07:40:19;;;;;;;4.33;3.20;;;14.00;84.50;;;;;;5032282;28;20203;-52
2022/04/13 07:42:45;;;;;;;4.83;4.27;;;14.30;83.60;;;;;;5043779;28;20180;-51
2022/04/13 07:45:11;;;;;;;4.50;3.73;;;14.30;84.50;;;;;;5042066;28;20210;-55
2022/04/13 07:47:37;;;;;;;6.93;3.93;;;14.40;84.00;;;;;;5049882;28;20195;-53
2022/04/13 07:50:02;;;;;;;4.77;3.50;;;14.50;84.00;;;;;;5026758;28;20253;-53
2022/04/13 07:52:33;;;;;;;6.70;3.77;;;14.60;86.00;;;;;;5026457;28;20661;-52
2022/04/13 07:54:59;;;;;;;5.23;4.03;;;14.70;84.40;;;;;;5031499;28;20198;-57
2022/04/13 07:57:24;;;;;;;4.60;3.50;;;14.70;85.50;;;;;;5031084;28;20244;-53
2022/04/13 07:59:50;;;;;;;5.30;3.90;;;14.70;84.60;;;;;;5033500;28;20213;-54
2022/04/13 08:02:20;;;;;;;4.27;3.57;;;14.70;85.70;;;;;;5033221;28;20183;-53
2022/04/13 08:04:46;;;;;;;4.00;3.57;;;16.40;89.00;;;;;;5033301;28;20267;-55
2022/04/13 08:07:12;;;;;;;6.97;4.53;;;16.00;89.70;;;;;;5027478;28;20211;-53
2022/04/13 08:09:38;;;;;;;5.07;4.03;;;15.10;90.60;;;;;;5033742;28;20180;-52
2022/04/13 08:12:04;;;;;;;6.63;4.80;;;15.10;89.50;;;;;;5032435;28;20253;-53
2022/04/13 08:14:29;;;;;;;5.50;4.27;;;15.00;90.60;;;;;;5033569;28;20553;-56
2022/04/13 08:16:55;;;;;;;5.00;4.30;;;16.80;91.60;;;;;;5033611;28;20196;-55
2022/04/13 08:19:20;;;;;;;7.10;4.33;;;14.60;91.00;;;;;;5033588;28;20272;-52
2022/04/13 08:21:46;;;;;;;7.77;4.70;;;14.60;91.00;;;;;;5033527;28;20632;-53
2022/04/13 08:24:12;;;;;;;4.57;4.10;;;14.60;91.90;;;;;;5028310;28;20195;-54
2022/04/13 08:26:37;;;;;;;6.27;3.90;;;14.50;91.40;;;;;;5038773;28;20268;-56
2022/04/13 08:29:03;;;;;;;6.33;3.97;;;14.60;91.30;;;;;;5034613;28;20784;-52
2022/04/13 08:31:29;;;;;;;4.67;4.20;;;14.70;90.60;;;;;;5035105;28;20234;-53
2022/04/13 08:33:54;;;;;;;5.07;3.70;;;14.90;91.00;;;;;;5029259;28;20274;-54
2022/04/13 08:36:20;;;;;;;5.37;4.00;;;15.10;90.30;;;;;;5036474;28;20738;-57
2022/04/13 08:38:45;;;;;;;5.33;4.10;;;15.20;90.20;;;;;;5036512;28;20207;-56
2022/04/13 08:41:25;;;;;;;5.03;4.17;;;15.20;88.90;;;;;;5037369;28;20261;-49
2022/04/13 08:44:11;;;;;;;5.67;3.40;;;15.40;89.00;;;;;;5037641;28;20163;-55
2022/04/13 08:46:40;;;;;;;4.77;3.87;;;15.60;87.70;;;;;;5035482;28;20210;-51
2022/04/13 08:49:09;;;;;;;4.33;3.50;;;15.80;86.20;;;;;;5032470;28;20199;-51
2022/04/13 08:51:36;;;;;;;4.30;3.70;;;16.00;85.00;;;;;;5028625;28;20235;-55
2022/04/13 08:54:17;;;;;;;8.00;3.90;;;16.20;84.60;;;;;;5034920;28;20218;-50
2022/04/13 08:56:47;;;;;;;5.03;3.63;;;16.50;87.80;;;;;;5032119;28;20231;-56
2022/04/13 08:59:29;;;;;;;6.17;4.00;;;16.70;85.20;;;;;;5033798;28;20245;-52
2022/04/13 09:02:21;;;;;;;4.03;3.63;;;16.60;85.00;;;;;;5027643;28;20178;-55
2022/04/13 09:04:48;;;;;;;6.20;3.93;;;16.60;85.30;;;;;;5032627;28;20557;-51
2022/04/13 09:07:17;;;;;;;5.23;4.33;;;16.60;87.30;;;;;;5034451;28;20195;-56
2022/04/13 09:09:55;;;;;;;4.53;4.03;;;16.70;86.00;;;;;;5033075;28;20254;-54
2022/04/13 09:12:22;;;;;;;4.23;3.80;;;16.90;88.70;;;;;;5032217;28;20180;-55
2022/04/13 09:14:48;;;;;;;6.90;4.13;;;17.00;88.40;;;;;;5029976;28;20193;-53
2022/04/13 09:17:13;;;;;;;4.00;3.60;;;17.30;84.80;;;;;;5019708;28;20192;-54
2022/04/13 09:19:39;;;;;;;5.67;3.70;;;17.50;84.30;;;;;;5021711;28;20205;-57
2022/04/13 09:22:05;;;;;;;4.90;3.87;;;17.80;83.10;;;;;;5031343;28;20206;-53
2022/04/13 09:24:32;;;;;;;4.83;3.90;;;18.00;82.30;;;;;;5030713;28;20649;-56
2022/04/13 09:27:03;;;;;;;4.43;4.03;;;16.20;79.60;;;;;;5038182;28;20200;-57
2022/04/13 09:29:28;;;;;;;4.90;3.63;;;18.20;83.20;;;;;;5030962;28;20575;-56
2022/04/13 09:31:54;;;;;;;6.07;4.03;;;18.10;82.40;;;;;;5031911;28;20171;-57
2022/04/13 09:34:19;;;;;;;5.37;4.03;;;18.90;85.10;;;;;;5032227;28;20176;-57
2022/04/13 09:36:45;;;;;;;9.13;4.27;;;18.30;82.20;;;;;;5031502;28;20234;-56
2022/04/13 09:39:11;;;;;;;5.43;4.13;;;18.60;82.90;;;;;;5032443;28;20294;-55
2022/04/13 09:41:38;;;;;;;4.40;3.90;;;18.90;81.30;;;;;;5032254;28;20176;-53
2022/04/13 09:44:18;;;;;;;4.73;3.80;;;19.10;84.20;;;;;;5032710;28;20262;-55
2022/04/13 09:46:44;;;;;;;5.83;3.93;;;19.50;84.70;;;;;;5036684;28;20672;-52
2022/04/13 09:49:11;;;;;;;4.60;4.00;;;19.90;84.60;;;;;;5033177;28;20172;-53
2022/04/13 09:51:38;;;;;;;5.20;3.73;;;20.00;80.20;;;;;;5033830;28;20175;-57
2022/04/13 09:54:07;;;;;;;4.67;3.93;;;20.20;78.70;;;;;;5033272;28;20172;-56
2022/04/13 09:56:35;;;;;;;6.53;4.60;;;21.00;80.70;;;;;;5036919;28;20183;-55
2022/04/13 09:59:00;;;;;;;4.90;4.40;;;20.60;77.80;;;;;;5051744;28;20564;-57
2022/04/13 10:01:26;;;;;;;6.20;4.40;;;20.60;78.50;;;;;;5051627;28;20170;-53
2022/04/13 10:03:55;;;;;;;5.87;4.40;;;20.60;77.70;;;;;;5051510;28;20648;-54
2022/04/13 10:06:28;;;;;;;5.40;3.90;;;20.60;77.60;;;;;;5031342;28;20172;-52
2022/04/13 10:09:04;;;;;;;4.80;4.00;;;20.50;77.10;;;;;;5031718;28;20184;-56
2022/04/13 10:11:30;;;;;;;4.65;3.90;;;20.90;78.50;;;;;;5031977;28;20172;-57
2022/04/13 10:13:56;;;;;;;4.72;4.28;;;20.80;77.90;;;;;;5031020;28;20791;-56
2022/04/13 10:16:22;;;;;;;5.10;4.07;;;21.00;76.00;;;;;;5031564;28;20180;-52
2022/04/13 10:18:57;;;;;;;5.43;4.20;;;21.00;76.90;;;;;;5031538;28;20216;-57
2022/04/13 10:21:47;;;;;;;5.30;4.30;;;21.10;77.20;;;;;;5031922;28;20513;-53
2022/04/13 10:24:21;;;;;;;6.75;4.32;;;21.50;77.40;;;;;;5030541;28;20178;-54
2022/04/13 10:27:08;;;;;;;4.68;3.90;;;21.60;75.60;;;;;;5031729;28;20201;-54
2022/04/13 10:29:36;;;;;;;4.72;3.88;;;21.70;75.60;;;;;;5031837;28;20351;-55
2022/04/13 10:32:10;;;;;;;4.28;3.83;;;21.90;76.10;;;;;;5031380;28;20263;-58
2022/04/13 10:34:49;;;;;;;4.43;3.90;;;21.90;73.10;;;;;;5020137;28;20515;-54
2022/04/13 10:37:19;;;;;;;5.55;3.90;;;22.00;73.90;;;;;;5011753;28;20204;-56
2022/04/13 10:39:46;;;;;;;5.90;3.95;;;21.90;73.70;;;;;;5011860;28;20746;-54
2022/04/13 10:42:14;;;;;;;3.97;3.60;;;21.60;73.40;;;;;;5010552;28;20531;-56
2022/04/13 10:44:53;;;;;;;4.22;3.60;;;21.50;72.40;;;;;;5011692;28;20178;-56
2022/04/13 10:47:24;;;;;;;4.53;3.67;;;21.70;73.00;;;;;;5011813;28;20558;-56
2022/04/13 10:49:56;;;;;;;4.85;4.00;;;22.00;75.00;;;;;;5011629;28;20179;-57
2022/04/13 10:52:37;;;;;;;3.90;3.47;;;22.30;71.40;;;;;;5011460;28;20227;-57
2022/04/13 10:55:09;;;;;;;4.07;3.55;;;22.10;73.10;;;;;;5011707;28;20566;-58
2022/04/13 10:57:37;;;;;;;4.93;4.07;;;22.50;73.30;;;;;;5011582;28;20352;-57
2022/04/13 11:00:05;;;;;;;3.55;3.20;;;22.70;70.50;;;;;;5011553;28;20201;-57
2022/04/13 11:02:42;;;;;;;4.63;3.85;;;22.90;73.50;;;;;;5011383;28;20225;-58
2022/04/13 11:05:08;;;;;;;5.82;4.10;;;23.50;72.60;;;;;;5011547;28;20180;-57
2022/04/13 11:07:36;;;;;;;4.00;3.60;;;23.70;71.70;;;;;;5011717;28;20223;-58
2022/04/13 11:10:04;;;;;;;6.15;4.43;;;23.80;71.40;;;;;;5011553;28;20677;-57
2022/04/13 11:12:31;;;;;;;4.40;3.50;;;23.80;70.50;;;;;;5011364;28;20574;-58
2022/04/13 11:15:02;;;;;;;6.25;3.92;;;23.80;74.10;;;;;;5011510;28;20173;-57
2022/04/13 11:17:28;;;;;;;4.60;3.97;;;23.90;71.80;;;;;;5011525;28;20284;-57
2022/04/13 11:20:17;;;;;;;4.80;4.15;;;23.90;71.90;;;;;;5011182;28;20200;-57
2022/04/13 11:22:43;;;;;;;5.28;4.28;;;24.20;73.40;;;;;;5010836;28;20539;-57
2022/04/13 11:25:09;;;;;;;4.32;3.92;;;24.40;70.60;;;;;;5011350;28;20169;-58
2022/04/13 11:27:54;;;;;;;5.03;4.30;;;24.70;69.50;;;;;;5015424;28;20486;-52
2022/04/13 11:30:20;;;;;;;4.43;3.95;;;24.60;72.60;;;;;;5014895;28;20541;-56
2022/04/13 11:32:46;;;;;;;6.22;4.05;;;24.50;75.00;;;;;;5014544;28;20180;-55
2022/04/13 11:35:26;;;;;;;4.28;3.88;;;24.80;68.40;;;;;;5014907;28;20581;-58
2022/04/13 11:38:05;;;;;;;5.05;3.90;;;25.10;65.90;;;;;;5014436;28;20203;-55
2022/04/13 11:40:31;;;;;;;6.03;4.43;;;25.30;65.00;;;;;;5014631;28;20180;-58
2022/04/13 11:42:59;;;;;;;5.80;4.50;;;25.00;65.80;;;;;;5014258;28;20169;-57
2022/04/13 11:45:25;;;;;;;4.95;4.45;;;25.00;67.20;;;;;;5014617;28;20173;-57
2022/04/13 11:47:50;;;;;;;6.60;5.00;;;24.60;68.00;;;;;;5014590;28;20203;-57
2022/04/13 11:50:19;;;;;;;5.38;4.32;;;24.50;66.50;;;;;;5014550;28;20168;-58
2022/04/13 11:53:05;;;;;;;6.43;4.80;;;24.90;68.70;;;;;;5014024;28;20179;-57
2022/04/13 11:55:35;;;;;;;7.53;4.55;;;25.30;70.50;;;;;;5014589;28;20240;-57
2022/04/13 11:58:20;;;;;;;4.38;3.97;;;25.60;68.10;;;;;;5013960;28;20192;-54
2022/04/13 12:00:56;;;;;;;5.47;4.55;;;26.20;71.00;;;;;;5014349;28;20179;-56
2022/04/13 12:03:35;;;;;;;6.78;4.50;;;27.00;63.80;;;;;;5013925;28;20173;-56
2022/04/13 12:06:13;;;;;;;5.10;4.18;;;27.90;60.10;;;;;;5014229;28;20176;-57
2022/04/13 12:08:40;;;;;;;6.57;4.53;;;28.20;60.00;;;;;;5014061;28;20192;-57
2022/04/13 12:11:13;;;;;;;5.57;3.90;;;28.20;63.50;;;;;;5014437;28;20554;-57
2022/04/13 12:13:46;;;;;;;3.88;3.28;;;28.60;59.40;;;;;;5013713;28;20161;-54
2022/04/13 12:16:18;;;;;;;5.03;3.90;;;29.30;62.00;;;;;;5014010;28;20208;-58
2022/04/13 12:18:43;;;;;;;4.82;3.55;;;29.50;59.50;;;;;;5013802;28;20204;-58
2022/04/13 12:21:12;;;;;;;5.97;3.60;;;29.30;58.50;;;;;;5014497;28;20208;-56
2022/04/13 12:23:38;;;;;;;4.25;3.75;;;28.70;58.30;;;;;;5028066;28;20172;-58
2022/04/13 12:26:05;;;;;;;5.63;3.97;;;28.90;54.70;;;;;;5033543;28;20234;-57
2022/04/13 12:28:31;;;;;;;4.60;3.67;;;29.10;57.60;;;;;;5033657;28;20282;-57
2022/04/13 12:31:02;;;;;;;4.35;3.70;;;29.20;56.50;;;;;;5033458;28;20259;-58
2022/04/13 12:33:28;;;;;;;4.28;3.88;;;29.10;57.10;;;;;;5033280;28;20191;-58
2022/04/13 12:35:55;;;;;;;4.35;3.83;;;29.40;53.80;;;;;;5033432;28;20241;-59
2022/04/13 12:38:28;;;;;;;4.45;3.90;;;29.80;53.30;;;;;;5033449;28;20695;-57
2022/04/13 12:41:08;;;;;;;6.32;4.00;;;29.50;56.40;;;;;;5033819;28;20164;-58
2022/04/13 12:43:34;;;;;;;4.22;3.67;;;29.00;56.30;;;;;;5033173;28;20152;-58
2022/04/13 12:46:20;;;;;;;4.43;4.03;;;29.30;56.40;;;;;;5033207;28;20653;-55
2022/04/13 12:48:48;;;;;;;4.32;3.92;;;29.30;55.80;;;;;;5033279;28;20180;-58
2022/04/13 12:51:14;;;;;;;4.32;3.78;;;29.30;54.00;;;;;;5033121;28;20834;-56
2022/04/13 12:53:50;;;;;;;4.40;3.55;;;29.10;54.60;;;;;;5032973;28;20168;-51